sensor_id;sensor_type;location;lat;lon;timestamp;P1;durP1;ratioP1;P2;durP2;ratioP2
21546;SDS011;41275;51.912;4.388;2023-09-12T00:01:07;18.20;;;8.25;;
21546;SDS011;41275;51.912;4.388;2023-09-12T00:06:28;17.57;;;8.43;;
21546;SDS011;41275;51.912;4.388;2023-09-12T00:11:50;22.40;;;9.75;;
21546;SDS011;41275;51.912;4.388;2023-09-12T00:17:11;18.20;;;8.40;;
21546;SDS011;41275;51.912;4.388;2023-09-12T00:22:32;19.73;;;8.57;;
21546;SDS011;41275;51.912;4.388;2023-09-12T00:27:53;20.33;;;9.55;;
21546;SDS011;41275;51.912;4.388;2023-09-12T00:33:14;20.48;;;9.32;;
21546;SDS011;41275;51.912;4.388;2023-09-12T00:38:36;19.73;;;8.57;;
21546;SDS011;41275;51.912;4.388;2023-09-12T00:43:57;17.15;;;8.63;;
21546;SDS011;41275;51.912;4.388;2023-09-12T00:49:19;18.00;;;9.07;;
21546;SDS011;41275;51.912;4.388;2023-09-12T00:54:43;19.10;;;8.63;;
21546;SDS011;41275;51.912;4.388;2023-09-12T01:00:04;21.17;;;9.35;;
21546;SDS011;41275;51.912;4.388;2023-09-12T01:05:32;14.47;;;7.70;;
21546;SDS011;41275;51.912;4.388;2023-09-12T01:10:53;14.83;;;7.27;;
21546;SDS011;41275;51.912;4.388;2023-09-12T01:16:17;14.07;;;7.17;;
21546;SDS011;41275;51.912;4.388;2023-09-12T01:27:25;14.95;;;7.47;;
21546;SDS011;41275;51.912;4.388;2023-09-12T01:32:49;15.48;;;6.88;;
21546;SDS011;41275;51.912;4.388;2023-09-12T01:38:10;11.03;;;6.30;;
21546;SDS011;41275;51.912;4.388;2023-09-12T01:43:31;14.13;;;6.57;;
21546;SDS011;41275;51.912;4.388;2023-09-12T01:48:56;16.00;;;6.83;;
21546;SDS011;41275;51.912;4.388;2023-09-12T01:54:19;11.85;;;6.63;;
21546;SDS011;41275;51.912;4.388;2023-09-12T01:59:42;14.05;;;6.97;;
21546;SDS011;41275;51.912;4.388;2023-09-12T02:05:09;15.38;;;7.25;;
21546;SDS011;41275;51.912;4.388;2023-09-12T02:10:35;18.53;;;8.27;;
21546;SDS011;41275;51.912;4.388;2023-09-12T02:15:58;18.75;;;8.40;;
21546;SDS011;41275;51.912;4.388;2023-09-12T02:21:20;20.57;;;8.50;;
21546;SDS011;41275;51.912;4.388;2023-09-12T02:26:42;21.88;;;9.20;;
21546;SDS011;41275;51.912;4.388;2023-09-12T02:32:03;18.55;;;8.98;;
21546;SDS011;41275;51.912;4.388;2023-09-12T02:37:24;19.73;;;9.32;;
21546;SDS011;41275;51.912;4.388;2023-09-12T02:42:46;20.47;;;9.03;;
21546;SDS011;41275;51.912;4.388;2023-09-12T02:48:07;20.35;;;10.18;;
21546;SDS011;41275;51.912;4.388;2023-09-12T02:53:28;25.65;;;10.02;;
21546;SDS011;41275;51.912;4.388;2023-09-12T02:58:49;28.87;;;11.80;;
21546;SDS011;41275;51.912;4.388;2023-09-12T03:04:11;25.15;;;11.57;;
21546;SDS011;41275;51.912;4.388;2023-09-12T03:09:32;26.02;;;11.63;;
21546;SDS011;41275;51.912;4.388;2023-09-12T03:14:53;32.03;;;12.53;;
21546;SDS011;41275;51.912;4.388;2023-09-12T03:20:14;28.33;;;11.02;;
21546;SDS011;41275;51.912;4.388;2023-09-12T03:25:36;25.55;;;10.77;;
21546;SDS011;41275;51.912;4.388;2023-09-12T03:31:11;27.40;;;11.70;;
21546;SDS011;41275;51.912;4.388;2023-09-12T03:36:34;28.13;;;11.80;;
21546;SDS011;41275;51.912;4.388;2023-09-12T03:41:55;28.88;;;11.75;;
21546;SDS011;41275;51.912;4.388;2023-09-12T03:47:16;27.92;;;11.95;;
21546;SDS011;41275;51.912;4.388;2023-09-12T03:52:38;29.37;;;11.93;;
21546;SDS011;41275;51.912;4.388;2023-09-12T03:57:59;25.42;;;11.73;;
21546;SDS011;41275;51.912;4.388;2023-09-12T04:03:20;27.52;;;12.07;;
21546;SDS011;41275;51.912;4.388;2023-09-12T04:08:41;28.23;;;12.17;;
21546;SDS011;41275;51.912;4.388;2023-09-12T04:14:02;32.30;;;11.85;;
21546;SDS011;41275;51.912;4.388;2023-09-12T04:19:24;30.38;;;12.73;;
21546;SDS011;41275;51.912;4.388;2023-09-12T04:24:46;30.77;;;12.38;;
21546;SDS011;41275;51.912;4.388;2023-09-12T04:30:07;27.30;;;12.80;;
21546;SDS011;41275;51.912;4.388;2023-09-12T04:35:29;33.10;;;13.00;;
21546;SDS011;41275;51.912;4.388;2023-09-12T04:40:55;30.50;;;12.90;;
21546;SDS011;41275;51.912;4.388;2023-09-12T04:46:23;27.67;;;12.80;;
21546;SDS011;41275;51.912;4.388;2023-09-12T04:51:45;30.73;;;12.77;;
21546;SDS011;41275;51.912;4.388;2023-09-12T04:57:07;30.10;;;12.20;;
21546;SDS011;41275;51.912;4.388;2023-09-12T05:02:28;31.23;;;13.00;;
21546;SDS011;41275;51.912;4.388;2023-09-12T05:07:50;32.53;;;12.67;;
21546;SDS011;41275;51.912;4.388;2023-09-12T05:13:12;28.90;;;12.02;;
21546;SDS011;41275;51.912;4.388;2023-09-12T05:18:34;29.20;;;12.07;;
21546;SDS011;41275;51.912;4.388;2023-09-12T05:23:57;28.50;;;12.32;;
21546;SDS011;41275;51.912;4.388;2023-09-12T05:29:18;31.02;;;12.98;;
21546;SDS011;41275;51.912;4.388;2023-09-12T05:34:39;29.80;;;12.73;;
21546;SDS011;41275;51.912;4.388;2023-09-12T05:40:01;33.88;;;14.13;;
21546;SDS011;41275;51.912;4.388;2023-09-12T05:45:22;29.50;;;12.15;;
21546;SDS011;41275;51.912;4.388;2023-09-12T05:50:44;30.93;;;12.17;;
21546;SDS011;41275;51.912;4.388;2023-09-12T05:56:05;32.35;;;13.20;;
21546;SDS011;41275;51.912;4.388;2023-09-12T06:01:32;33.35;;;12.63;;
21546;SDS011;41275;51.912;4.388;2023-09-12T06:06:53;33.70;;;13.15;;
21546;SDS011;41275;51.912;4.388;2023-09-12T06:12:15;34.60;;;13.50;;
21546;SDS011;41275;51.912;4.388;2023-09-12T06:17:36;38.30;;;13.50;;
21546;SDS011;41275;51.912;4.388;2023-09-12T06:22:57;30.40;;;13.18;;
21546;SDS011;41275;51.912;4.388;2023-09-12T06:28:27;36.07;;;13.80;;
21546;SDS011;41275;51.912;4.388;2023-09-12T06:33:49;32.90;;;14.00;;
21546;SDS011;41275;51.912;4.388;2023-09-12T06:39:10;30.77;;;13.20;;
21546;SDS011;41275;51.912;4.388;2023-09-12T06:44:31;28.35;;;13.13;;
21546;SDS011;41275;51.912;4.388;2023-09-12T06:49:52;27.42;;;12.52;;
21546;SDS011;41275;51.912;4.388;2023-09-12T06:55:14;26.33;;;11.85;;
21546;SDS011;41275;51.912;4.388;2023-09-12T07:00:35;23.47;;;11.30;;
21546;SDS011;41275;51.912;4.388;2023-09-12T07:05:56;29.47;;;11.70;;
21546;SDS011;41275;51.912;4.388;2023-09-12T07:11:24;26.88;;;11.93;;
21546;SDS011;41275;51.912;4.388;2023-09-12T07:16:51;23.42;;;10.60;;
21546;SDS011;41275;51.912;4.388;2023-09-12T07:22:12;22.90;;;10.30;;
21546;SDS011;41275;51.912;4.388;2023-09-12T07:27:33;27.92;;;11.40;;
21546;SDS011;41275;51.912;4.388;2023-09-12T07:32:55;22.92;;;10.55;;
21546;SDS011;41275;51.912;4.388;2023-09-12T07:38:16;26.63;;;11.40;;
21546;SDS011;41275;51.912;4.388;2023-09-12T07:43:37;22.70;;;10.20;;
21546;SDS011;41275;51.912;4.388;2023-09-12T07:48:58;25.57;;;10.40;;
21546;SDS011;41275;51.912;4.388;2023-09-12T07:54:20;22.73;;;10.43;;
21546;SDS011;41275;51.912;4.388;2023-09-12T07:59:41;21.13;;;9.60;;
21546;SDS011;41275;51.912;4.388;2023-09-12T08:05:02;20.47;;;9.63;;
21546;SDS011;41275;51.912;4.388;2023-09-12T08:10:23;25.00;;;10.63;;
21546;SDS011;41275;51.912;4.388;2023-09-12T08:15:45;23.35;;;10.30;;
21546;SDS011;41275;51.912;4.388;2023-09-12T08:21:06;23.23;;;11.13;;
21546;SDS011;41275;51.912;4.388;2023-09-12T08:26:27;24.95;;;11.20;;
21546;SDS011;41275;51.912;4.388;2023-09-12T08:31:48;21.77;;;10.50;;
21546;SDS011;41275;51.912;4.388;2023-09-12T08:37:10;23.55;;;11.77;;
21546;SDS011;41275;51.912;4.388;2023-09-12T08:42:31;24.02;;;11.57;;
21546;SDS011;41275;51.912;4.388;2023-09-12T08:47:53;25.00;;;12.05;;
21546;SDS011;41275;51.912;4.388;2023-09-12T08:53:17;24.70;;;11.77;;
21546;SDS011;41275;51.912;4.388;2023-09-12T08:58:41;25.92;;;12.23;;
21546;SDS011;41275;51.912;4.388;2023-09-12T09:04:03;23.23;;;11.52;;
21546;SDS011;41275;51.912;4.388;2023-09-12T09:09:26;22.63;;;11.35;;
21546;SDS011;41275;51.912;4.388;2023-09-12T09:14:49;24.77;;;11.32;;
21546;SDS011;41275;51.912;4.388;2023-09-12T09:20:12;23.35;;;11.90;;
21546;SDS011;41275;51.912;4.388;2023-09-12T09:25:51;28.23;;;11.77;;
21546;SDS011;41275;51.912;4.388;2023-09-12T09:31:14;27.45;;;11.70;;
21546;SDS011;41275;51.912;4.388;2023-09-12T09:36:35;19.63;;;10.80;;
21546;SDS011;41275;51.912;4.388;2023-09-12T09:41:56;19.77;;;10.25;;
21546;SDS011;41275;51.912;4.388;2023-09-12T09:47:18;21.15;;;10.63;;
21546;SDS011;41275;51.912;4.388;2023-09-12T09:52:40;26.37;;;11.70;;
21546;SDS011;41275;51.912;4.388;2023-09-12T09:58:07;25.57;;;11.50;;
21546;SDS011;41275;51.912;4.388;2023-09-12T10:03:28;20.70;;;10.18;;
21546;SDS011;41275;51.912;4.388;2023-09-12T10:08:56;21.77;;;10.00;;
21546;SDS011;41275;51.912;4.388;2023-09-12T10:14:19;21.70;;;10.67;;
21546;SDS011;41275;51.912;4.388;2023-09-12T10:19:49;20.93;;;9.20;;
21546;SDS011;41275;51.912;4.388;2023-09-12T10:25:14;21.42;;;9.38;;
21546;SDS011;41275;51.912;4.388;2023-09-12T10:30:36;19.92;;;8.93;;
21546;SDS011;41275;51.912;4.388;2023-09-12T10:35:58;17.92;;;8.27;;
21546;SDS011;41275;51.912;4.388;2023-09-12T10:41:20;19.27;;;9.20;;
21546;SDS011;41275;51.912;4.388;2023-09-12T10:46:44;17.70;;;8.52;;
21546;SDS011;41275;51.912;4.388;2023-09-12T10:52:07;21.70;;;9.60;;
21546;SDS011;41275;51.912;4.388;2023-09-12T10:57:28;22.85;;;9.95;;
21546;SDS011;41275;51.912;4.388;2023-09-12T11:02:49;19.10;;;8.73;;
21546;SDS011;41275;51.912;4.388;2023-09-12T11:08:10;23.20;;;9.70;;
21546;SDS011;41275;51.912;4.388;2023-09-12T11:13:37;22.10;;;9.90;;
21546;SDS011;41275;51.912;4.388;2023-09-12T11:24:44;19.73;;;8.40;;
21546;SDS011;41275;51.912;4.388;2023-09-12T11:30:07;14.20;;;7.43;;
21546;SDS011;41275;51.912;4.388;2023-09-12T11:35:29;17.30;;;7.57;;
21546;SDS011;41275;51.912;4.388;2023-09-12T11:40:50;14.70;;;7.57;;
21546;SDS011;41275;51.912;4.388;2023-09-12T11:46:12;18.40;;;7.63;;
21546;SDS011;41275;51.912;4.388;2023-09-12T11:51:33;17.83;;;8.43;;
21546;SDS011;41275;51.912;4.388;2023-09-12T11:56:55;17.70;;;8.10;;
21546;SDS011;41275;51.912;4.388;2023-09-12T12:02:20;17.50;;;7.68;;
21546;SDS011;41275;51.912;4.388;2023-09-12T12:07:41;15.20;;;7.60;;
21546;SDS011;41275;51.912;4.388;2023-09-12T12:13:03;17.08;;;6.68;;
21546;SDS011;41275;51.912;4.388;2023-09-12T12:18:25;14.10;;;6.43;;
21546;SDS011;41275;51.912;4.388;2023-09-12T12:23:47;15.13;;;6.55;;
21546;SDS011;41275;51.912;4.388;2023-09-12T12:29:18;14.80;;;6.63;;
21546;SDS011;41275;51.912;4.388;2023-09-12T12:34:39;16.70;;;8.13;;
21546;SDS011;41275;51.912;4.388;2023-09-12T12:40:00;21.20;;;8.63;;
21546;SDS011;41275;51.912;4.388;2023-09-12T12:45:24;24.83;;;8.70;;
21546;SDS011;41275;51.912;4.388;2023-09-12T12:50:45;18.15;;;8.00;;
21546;SDS011;41275;51.912;4.388;2023-09-12T12:56:06;19.33;;;8.20;;
21546;SDS011;41275;51.912;4.388;2023-09-12T13:01:28;20.52;;;8.85;;
21546;SDS011;41275;51.912;4.388;2023-09-12T13:06:50;17.43;;;7.90;;
21546;SDS011;41275;51.912;4.388;2023-09-12T13:12:12;18.95;;;7.97;;
21546;SDS011;41275;51.912;4.388;2023-09-12T13:17:33;19.57;;;7.70;;
21546;SDS011;41275;51.912;4.388;2023-09-12T13:22:54;14.63;;;5.80;;
21546;SDS011;41275;51.912;4.388;2023-09-12T13:28:16;10.95;;;5.55;;
21546;SDS011;41275;51.912;4.388;2023-09-12T13:33:38;15.57;;;6.80;;
21546;SDS011;41275;51.912;4.388;2023-09-12T13:38:59;16.13;;;5.93;;
21546;SDS011;41275;51.912;4.388;2023-09-12T13:44:20;11.55;;;5.38;;
21546;SDS011;41275;51.912;4.388;2023-09-12T13:49:42;14.23;;;5.90;;
21546;SDS011;41275;51.912;4.388;2023-09-12T13:55:03;13.30;;;5.70;;
21546;SDS011;41275;51.912;4.388;2023-09-12T14:00:24;13.70;;;5.82;;
21546;SDS011;41275;51.912;4.388;2023-09-12T14:05:46;14.23;;;5.97;;
21546;SDS011;41275;51.912;4.388;2023-09-12T14:11:07;16.75;;;5.13;;
21546;SDS011;41275;51.912;4.388;2023-09-12T14:16:28;12.23;;;5.53;;
21546;SDS011;41275;51.912;4.388;2023-09-12T14:21:49;10.10;;;5.00;;
21546;SDS011;41275;51.912;4.388;2023-09-12T14:27:10;11.98;;;5.28;;
21546;SDS011;41275;51.912;4.388;2023-09-12T14:32:32;11.13;;;4.45;;
21546;SDS011;41275;51.912;4.388;2023-09-12T14:37:53;7.18;;;3.03;;
21546;SDS011;41275;51.912;4.388;2023-09-12T14:43:14;4.10;;;2.33;;
21546;SDS011;41275;51.912;4.388;2023-09-12T14:48:35;5.93;;;2.30;;
21546;SDS011;41275;51.912;4.388;2023-09-12T14:53:57;4.05;;;1.98;;
21546;SDS011;41275;51.912;4.388;2023-09-12T14:59:18;5.10;;;2.35;;
21546;SDS011;41275;51.912;4.388;2023-09-12T15:04:39;5.18;;;2.50;;
21546;SDS011;41275;51.912;4.388;2023-09-12T15:10:00;7.88;;;3.17;;
21546;SDS011;41275;51.912;4.388;2023-09-12T15:15:21;7.25;;;3.30;;
21546;SDS011;41275;51.912;4.388;2023-09-12T15:20:43;10.43;;;3.78;;
21546;SDS011;41275;51.912;4.388;2023-09-12T15:26:04;12.70;;;4.75;;
21546;SDS011;41275;51.912;4.388;2023-09-12T15:31:25;10.65;;;5.28;;
21546;SDS011;41275;51.912;4.388;2023-09-12T15:36:47;8.35;;;3.85;;
21546;SDS011;41275;51.912;4.388;2023-09-12T15:42:08;6.87;;;2.97;;
21546;SDS011;41275;51.912;4.388;2023-09-12T15:47:29;7.20;;;2.90;;
21546;SDS011;41275;51.912;4.388;2023-09-12T15:52:51;4.35;;;2.53;;
21546;SDS011;41275;51.912;4.388;2023-09-12T15:58:12;6.07;;;2.97;;
21546;SDS011;41275;51.912;4.388;2023-09-12T16:03:34;6.97;;;3.40;;
21546;SDS011;41275;51.912;4.388;2023-09-12T16:08:55;7.30;;;3.60;;
21546;SDS011;41275;51.912;4.388;2023-09-12T16:14:17;6.43;;;3.47;;
21546;SDS011;41275;51.912;4.388;2023-09-12T16:19:38;7.13;;;3.77;;
21546;SDS011;41275;51.912;4.388;2023-09-12T16:24:59;8.83;;;3.80;;
21546;SDS011;41275;51.912;4.388;2023-09-12T16:30:20;9.20;;;3.50;;
21546;SDS011;41275;51.912;4.388;2023-09-12T16:35:41;8.80;;;3.83;;
21546;SDS011;41275;51.912;4.388;2023-09-12T16:41:03;8.60;;;3.97;;
21546;SDS011;41275;51.912;4.388;2023-09-12T16:46:24;10.00;;;3.47;;
21546;SDS011;41275;51.912;4.388;2023-09-12T16:51:45;8.83;;;3.30;;
21546;SDS011;41275;51.912;4.388;2023-09-12T16:57:06;8.00;;;4.20;;
21546;SDS011;41275;51.912;4.388;2023-09-12T17:02:33;11.13;;;4.38;;
21546;SDS011;41275;51.912;4.388;2023-09-12T17:07:55;7.83;;;3.67;;
21546;SDS011;41275;51.912;4.388;2023-09-12T17:13:17;7.77;;;3.20;;
21546;SDS011;41275;51.912;4.388;2023-09-12T17:18:38;5.13;;;2.87;;
21546;SDS011;41275;51.912;4.388;2023-09-12T17:23:59;6.77;;;3.10;;
21546;SDS011;41275;51.912;4.388;2023-09-12T17:29:20;6.97;;;3.17;;
21546;SDS011;41275;51.912;4.388;2023-09-12T17:34:46;6.70;;;2.95;;
21546;SDS011;41275;51.912;4.388;2023-09-12T17:40:12;8.27;;;3.20;;
21546;SDS011;41275;51.912;4.388;2023-09-12T17:45:33;7.70;;;2.78;;
21546;SDS011;41275;51.912;4.388;2023-09-12T17:50:55;8.85;;;2.58;;
21546;SDS011;41275;51.912;4.388;2023-09-12T17:56:17;6.15;;;2.90;;
21546;SDS011;41275;51.912;4.388;2023-09-12T18:01:38;5.90;;;2.80;;
21546;SDS011;41275;51.912;4.388;2023-09-12T18:07:01;5.47;;;2.77;;
21546;SDS011;41275;51.912;4.388;2023-09-12T18:12:23;6.30;;;2.97;;
21546;SDS011;41275;51.912;4.388;2023-09-12T18:17:44;7.73;;;3.37;;
21546;SDS011;41275;51.912;4.388;2023-09-12T18:23:05;5.85;;;3.17;;
21546;SDS011;41275;51.912;4.388;2023-09-12T18:28:38;7.38;;;3.63;;
21546;SDS011;41275;51.912;4.388;2023-09-12T18:34:06;8.20;;;4.10;;
21546;SDS011;41275;51.912;4.388;2023-09-12T18:39:27;9.07;;;3.72;;
21546;SDS011;41275;51.912;4.388;2023-09-12T18:44:49;7.93;;;4.32;;
21546;SDS011;41275;51.912;4.388;2023-09-12T18:50:10;9.30;;;3.47;;
21546;SDS011;41275;51.912;4.388;2023-09-12T18:55:31;7.95;;;3.72;;
21546;SDS011;41275;51.912;4.388;2023-09-12T19:00:52;8.85;;;3.90;;
21546;SDS011;41275;51.912;4.388;2023-09-12T19:06:14;9.27;;;4.50;;
21546;SDS011;41275;51.912;4.388;2023-09-12T19:11:35;7.87;;;4.00;;
21546;SDS011;41275;51.912;4.388;2023-09-12T19:16:56;8.27;;;4.13;;
21546;SDS011;41275;51.912;4.388;2023-09-12T19:22:17;9.35;;;4.40;;
21546;SDS011;41275;51.912;4.388;2023-09-12T19:27:39;8.13;;;3.95;;
21546;SDS011;41275;51.912;4.388;2023-09-12T19:33:04;8.93;;;4.50;;
21546;SDS011;41275;51.912;4.388;2023-09-12T19:38:28;8.93;;;4.38;;
21546;SDS011;41275;51.912;4.388;2023-09-12T19:43:49;8.83;;;4.60;;
21546;SDS011;41275;51.912;4.388;2023-09-12T19:49:11;10.25;;;4.97;;
21546;SDS011;41275;51.912;4.388;2023-09-12T19:54:32;8.73;;;5.03;;
21546;SDS011;41275;51.912;4.388;2023-09-12T19:59:53;11.18;;;5.80;;
21546;SDS011;41275;51.912;4.388;2023-09-12T20:05:14;10.43;;;5.50;;
21546;SDS011;41275;51.912;4.388;2023-09-12T20:10:41;10.35;;;5.47;;
21546;SDS011;41275;51.912;4.388;2023-09-12T20:16:02;9.93;;;5.60;;
21546;SDS011;41275;51.912;4.388;2023-09-12T20:21:24;11.73;;;5.65;;
21546;SDS011;41275;51.912;4.388;2023-09-12T20:26:45;11.98;;;6.05;;
21546;SDS011;41275;51.912;4.388;2023-09-12T20:32:08;10.75;;;5.97;;
21546;SDS011;41275;51.912;4.388;2023-09-12T20:37:29;11.43;;;5.95;;
21546;SDS011;41275;51.912;4.388;2023-09-12T20:42:51;12.77;;;5.97;;
21546;SDS011;41275;51.912;4.388;2023-09-12T20:48:13;11.88;;;5.32;;
21546;SDS011;41275;51.912;4.388;2023-09-12T20:53:36;10.68;;;5.88;;
21546;SDS011;41275;51.912;4.388;2023-09-12T20:58:58;13.57;;;5.95;;
21546;SDS011;41275;51.912;4.388;2023-09-12T21:04:20;10.67;;;6.10;;
21546;SDS011;41275;51.912;4.388;2023-09-12T21:09:41;10.60;;;5.50;;
21546;SDS011;41275;51.912;4.388;2023-09-12T21:15:02;10.38;;;5.07;;
21546;SDS011;41275;51.912;4.388;2023-09-12T21:20:27;10.27;;;5.47;;
21546;SDS011;41275;51.912;4.388;2023-09-12T21:25:48;14.57;;;6.18;;
21546;SDS011;41275;51.912;4.388;2023-09-12T21:31:11;11.83;;;5.47;;
21546;SDS011;41275;51.912;4.388;2023-09-12T21:36:32;11.25;;;5.47;;
21546;SDS011;41275;51.912;4.388;2023-09-12T21:41:53;9.60;;;5.38;;
21546;SDS011;41275;51.912;4.388;2023-09-12T21:47:16;8.18;;;4.78;;
21546;SDS011;41275;51.912;4.388;2023-09-12T21:52:38;10.13;;;5.07;;
21546;SDS011;41275;51.912;4.388;2023-09-12T21:57:59;10.85;;;5.30;;
21546;SDS011;41275;51.912;4.388;2023-09-12T22:03:21;10.77;;;5.07;;
21546;SDS011;41275;51.912;4.388;2023-09-12T22:08:43;9.50;;;4.90;;
21546;SDS011;41275;51.912;4.388;2023-09-12T22:14:05;8.02;;;4.57;;
21546;SDS011;41275;51.912;4.388;2023-09-12T22:19:27;9.10;;;4.77;;
21546;SDS011;41275;51.912;4.388;2023-09-12T22:24:51;9.18;;;4.15;;
21546;SDS011;41275;51.912;4.388;2023-09-12T22:30:13;8.60;;;4.47;;
21546;SDS011;41275;51.912;4.388;2023-09-12T22:35:34;7.72;;;4.28;;
21546;SDS011;41275;51.912;4.388;2023-09-12T22:40:55;11.07;;;4.38;;
21546;SDS011;41275;51.912;4.388;2023-09-12T22:46:16;10.60;;;4.80;;
21546;SDS011;41275;51.912;4.388;2023-09-12T22:51:38;8.50;;;4.25;;
21546;SDS011;41275;51.912;4.388;2023-09-12T22:56:59;7.78;;;4.18;;
21546;SDS011;41275;51.912;4.388;2023-09-12T23:02:20;8.07;;;4.20;;
21546;SDS011;41275;51.912;4.388;2023-09-12T23:07:41;7.73;;;4.07;;
21546;SDS011;41275;51.912;4.388;2023-09-12T23:13:03;8.45;;;4.28;;
21546;SDS011;41275;51.912;4.388;2023-09-12T23:18:24;8.75;;;4.20;;
21546;SDS011;41275;51.912;4.388;2023-09-12T23:23:46;7.68;;;4.18;;
21546;SDS011;41275;51.912;4.388;2023-09-12T23:29:07;10.93;;;4.80;;
21546;SDS011;41275;51.912;4.388;2023-09-12T23:34:28;9.07;;;4.88;;
21546;SDS011;41275;51.912;4.388;2023-09-12T23:39:50;10.27;;;5.00;;
21546;SDS011;41275;51.912;4.388;2023-09-12T23:45:11;10.38;;;4.60;;
21546;SDS011;41275;51.912;4.388;2023-09-12T23:50:33;8.57;;;4.73;;
21546;SDS011;41275;51.912;4.388;2023-09-12T23:55:57;11.13;;;4.35;;
